createdAt,value
2022-09-11T00:01:21.582Z,15.19
2022-09-11T00:03:49.754Z,15.21
2022-09-11T00:06:29.389Z,15.22
2022-09-11T00:09:02.791Z,15.21
2022-09-11T00:11:33.305Z,15.22
2022-09-11T00:14:01.893Z,15.22
2022-09-11T00:16:34.754Z,15.20
2022-09-11T00:19:04.778Z,15.17
2022-09-11T00:21:33.162Z,15.13
2022-09-11T00:24:01.460Z,15.10
2022-09-11T00:26:29.322Z,15.11
2022-09-11T00:28:57.431Z,15.13
2022-09-11T00:31:28.045Z,15.15
2022-09-11T00:33:56.533Z,15.14
2022-09-11T00:36:26.423Z,15.11
2022-09-11T00:38:54.524Z,15.09
2022-09-11T00:41:28.196Z,15.07
2022-09-11T00:44:03.635Z,15.05
2022-09-11T00:46:42.266Z,15.06
2022-09-11T00:49:30.891Z,15.05
2022-09-11T00:52:10.557Z,15.03
2022-09-11T00:54:44.275Z,14.98
2022-09-11T00:57:12.836Z,14.93
2022-09-11T00:59:43.824Z,14.89
2022-09-11T01:02:13.975Z,14.87
2022-09-11T01:04:41.730Z,14.83
2022-09-11T01:07:11.264Z,14.84
2022-09-11T01:09:39.209Z,14.83
2022-09-11T01:12:10.543Z,14.82
2022-09-11T01:14:41.273Z,14.82
2022-09-11T01:17:12.725Z,14.83
2022-09-11T01:19:59.906Z,14.85
2022-09-11T01:22:39.730Z,14.88
2022-09-11T01:25:31.560Z,14.92
2022-09-11T01:28:01.157Z,14.96
2022-09-11T01:30:32.561Z,14.98
2022-09-11T01:33:06.649Z,14.98
2022-09-11T01:35:54.152Z,14.97
2022-09-11T01:38:40.759Z,14.95
2022-09-11T01:41:15.584Z,14.96
2022-09-11T01:43:47.835Z,14.94
2022-09-11T01:46:23.184Z,14.93
2022-09-11T01:49:13.353Z,14.91
2022-09-11T01:51:41.865Z,14.86
2022-09-11T01:54:15.029Z,14.81
2022-09-11T01:56:47.533Z,14.80
2022-09-11T01:59:18.381Z,14.77
2022-09-11T02:01:51.363Z,14.75
2022-09-11T02:04:26.121Z,14.72
2022-09-11T02:06:56.712Z,14.68
2022-09-11T02:09:31.125Z,14.68
2022-09-11T02:12:03.610Z,14.67
2022-09-11T02:14:52.302Z,14.70
2022-09-11T02:17:36.717Z,14.70
2022-09-11T02:20:05.714Z,14.68
2022-09-11T02:22:33.470Z,14.69
2022-09-11T02:25:03.038Z,14.67
2022-09-11T02:27:33.790Z,14.63
2022-09-11T02:30:02.193Z,14.61
2022-09-11T02:32:33.028Z,14.61
2022-09-11T02:35:01.094Z,14.62
2022-09-11T02:37:51.289Z,14.62
2022-09-11T02:40:27.343Z,14.61
2022-09-11T02:42:58.768Z,14.59
2022-09-11T02:45:31.262Z,14.58
2022-09-11T02:48:05.205Z,14.55
2022-09-11T02:50:36.656Z,14.49
2022-09-11T02:53:24.171Z,14.44
2022-09-11T02:56:14.781Z,14.38
2022-09-11T02:58:50.577Z,14.37
2022-09-11T03:01:18.677Z,14.33
2022-09-11T03:03:47.432Z,14.30
2022-09-11T03:06:22.902Z,14.25
2022-09-11T03:08:51.381Z,14.20
2022-09-11T03:11:20.293Z,14.17
2022-09-11T03:13:49.582Z,14.12
2022-09-11T03:16:17.811Z,14.11
2022-09-11T03:18:45.865Z,14.07
2022-09-11T03:21:16.971Z,14.04
2022-09-11T03:23:45.028Z,14.02
2022-09-11T03:26:12.801Z,14.01
2022-09-11T03:28:40.955Z,14.02
2022-09-11T03:31:09.607Z,14.03
2022-09-11T03:33:37.629Z,14.02
2022-09-11T03:36:05.903Z,14.00
2022-09-11T03:38:33.773Z,13.96
2022-09-11T03:41:04.718Z,13.94
2022-09-11T03:43:33.429Z,13.94
2022-09-11T03:46:01.607Z,13.90
2022-09-11T03:48:29.542Z,13.89
2022-09-11T03:50:59.028Z,13.88
2022-09-11T03:53:27.168Z,13.89
2022-09-11T03:55:55.007Z,13.85
2022-09-11T03:58:23.086Z,13.85
2022-09-11T04:00:50.964Z,13.84
2022-09-11T04:03:19.361Z,13.80
2022-09-11T04:05:56.784Z,13.73
2022-09-11T04:08:24.653Z,13.70
2022-09-11T04:10:57.329Z,13.63
2022-09-11T04:13:32.567Z,13.63
2022-09-11T04:16:03.929Z,13.62
2022-09-11T04:18:35.144Z,13.61
2022-09-11T04:21:06.337Z,13.62
2022-09-11T04:23:34.411Z,13.66
2022-09-11T04:26:02.455Z,13.67
2022-09-11T04:28:31.486Z,13.72
2022-09-11T04:31:04.151Z,13.71
2022-09-11T04:33:34.953Z,13.71
2022-09-11T04:36:14.291Z,13.71
2022-09-11T04:38:42.164Z,13.74
2022-09-11T04:41:11.332Z,13.79
2022-09-11T04:43:39.692Z,13.85
2022-09-11T04:46:11.701Z,13.90
2022-09-11T04:48:51.717Z,13.89
2022-09-11T04:51:29.095Z,13.93
2022-09-11T04:53:58.406Z,13.97
2022-09-11T04:56:30.709Z,14.01
2022-09-11T04:59:07.351Z,14.03
2022-09-11T05:01:36.104Z,14.04
2022-09-11T05:04:06.390Z,14.04
2022-09-11T05:06:34.242Z,14.06
2022-09-11T05:09:04.657Z,14.03
2022-09-11T05:11:34.695Z,14.02
2022-09-11T05:14:03.061Z,14.03
2022-09-11T05:16:34.708Z,14.05
2022-09-11T05:19:04.539Z,14.12
2022-09-11T05:21:33.899Z,14.16
2022-09-11T05:24:02.280Z,14.21
2022-09-11T05:26:36.334Z,14.28
2022-09-11T05:29:07.239Z,14.36
2022-09-11T05:31:40.635Z,14.40
2022-09-11T05:34:10.545Z,14.45
2022-09-11T05:36:38.852Z,14.53
2022-09-11T05:39:06.879Z,14.57
2022-09-11T05:41:34.934Z,14.59
2022-09-11T05:44:03.353Z,14.64
2022-09-11T05:46:31.858Z,14.68
2022-09-11T05:49:03.473Z,14.69
2022-09-11T05:51:36.011Z,14.73
2022-09-11T05:54:04.384Z,14.77
2022-09-11T05:56:33.048Z,14.83
2022-09-11T05:59:03.990Z,14.91
2022-09-11T06:01:35.644Z,15.00
2022-09-11T06:04:12.731Z,15.06
2022-09-11T06:06:43.800Z,15.13
2022-09-11T06:09:11.731Z,15.19
2022-09-11T06:11:39.597Z,15.23
2022-09-11T06:14:07.565Z,15.34
2022-09-11T06:16:36.412Z,15.40
2022-09-11T06:19:10.403Z,15.47
2022-09-11T06:21:38.339Z,15.48
2022-09-11T06:24:14.422Z,15.54
2022-09-11T06:26:46.677Z,15.59
2022-09-11T06:29:16.253Z,15.64
2022-09-11T06:31:51.515Z,15.69
2022-09-11T06:34:23.191Z,15.70
2022-09-11T06:36:52.479Z,15.73
2022-09-11T06:39:23.279Z,15.78
2022-09-11T06:41:54.137Z,15.81
2022-09-11T06:44:27.550Z,15.76
2022-09-11T06:46:57.663Z,15.73
2022-09-11T06:49:25.837Z,15.73
2022-09-11T06:52:12.257Z,15.74
2022-09-11T06:54:41.250Z,15.80
2022-09-11T06:57:11.678Z,15.85
2022-09-11T06:59:39.554Z,15.83
2022-09-11T07:02:07.466Z,15.82
2022-09-11T07:04:35.425Z,15.87
2022-09-11T07:07:03.433Z,15.96
2022-09-11T07:09:31.280Z,15.98
2022-09-11T07:12:00.897Z,16.04
2022-09-11T07:14:28.857Z,16.11
2022-09-11T07:17:04.709Z,16.10
2022-09-11T07:19:33.754Z,16.15
2022-09-11T07:22:03.022Z,16.27
2022-09-11T07:24:32.032Z,16.25
2022-09-11T07:27:01.295Z,16.29
2022-09-11T07:29:32.537Z,16.36
2022-09-11T07:32:00.405Z,16.41
2022-09-11T07:34:28.790Z,16.41
2022-09-11T07:36:59.116Z,16.44
2022-09-11T07:39:28.063Z,16.46
2022-09-11T07:42:07.465Z,16.54
2022-09-11T07:44:36.093Z,16.56
2022-09-11T07:47:04.637Z,16.59
2022-09-11T07:49:37.280Z,16.66
2022-09-11T07:52:05.872Z,16.71
2022-09-11T07:54:40.971Z,16.76
2022-09-11T07:57:09.062Z,16.82
2022-09-11T07:59:37.345Z,16.88
2022-09-11T08:02:05.666Z,16.97
2022-09-11T08:04:33.691Z,17.06
2022-09-11T08:07:02.512Z,17.16
2022-09-11T08:09:34.337Z,17.22
2022-09-11T08:12:04.354Z,17.30
2022-09-11T08:14:33.553Z,17.36
2022-09-11T08:17:07.467Z,17.44
2022-09-11T08:19:37.825Z,17.52
2022-09-11T08:22:05.857Z,17.63
2022-09-11T08:24:36.771Z,17.74
2022-09-11T08:27:07.020Z,17.82
2022-09-11T08:29:37.572Z,17.89
2022-09-11T08:32:06.623Z,17.98
2022-09-11T08:34:34.665Z,18.03
2022-09-11T08:37:03.088Z,18.00
2022-09-11T08:39:33.411Z,17.89
2022-09-11T08:42:03.813Z,17.78
2022-09-11T08:44:51.555Z,17.77
2022-09-11T08:47:33.936Z,17.79
2022-09-11T08:50:07.372Z,17.83
2022-09-11T08:52:36.978Z,17.90
2022-09-11T08:55:06.423Z,17.95
2022-09-11T08:57:37.872Z,17.96
2022-09-11T09:00:07.642Z,18.03
2022-09-11T09:02:41.312Z,18.09
2022-09-11T09:05:14.639Z,18.18
2022-09-11T09:07:57.665Z,18.28
2022-09-11T09:10:46.010Z,18.34
2022-09-11T09:13:18.072Z,18.18
2022-09-11T09:15:51.258Z,18.23
2022-09-11T09:18:31.384Z,18.27
2022-09-11T09:21:06.630Z,18.37
2022-09-11T09:24:04.239Z,18.49
2022-09-11T09:26:38.619Z,18.61
2022-09-11T09:29:09.950Z,18.71
2022-09-11T09:31:39.231Z,18.74
2022-09-11T09:34:12.963Z,18.80
2022-09-11T09:36:50.599Z,18.84
2022-09-11T09:39:19.987Z,18.85
2022-09-11T09:42:06.231Z,18.89
2022-09-11T09:44:34.050Z,18.94
2022-09-11T09:47:01.917Z,18.99
2022-09-11T09:49:31.420Z,19.04
2022-09-11T09:52:04.489Z,19.08
2022-09-11T09:54:36.618Z,19.11
2022-09-11T09:57:06.038Z,19.14
2022-09-11T09:59:41.111Z,19.17
2022-09-11T10:02:09.519Z,19.15
2022-09-11T10:04:37.464Z,19.16
2022-09-11T10:07:14.336Z,19.27
2022-09-11T10:09:47.018Z,19.39
2022-09-11T10:12:25.944Z,19.47
2022-09-11T10:14:56.883Z,19.50
2022-09-11T10:17:35.340Z,19.51
2022-09-11T10:20:26.100Z,19.59
2022-09-11T10:22:55.294Z,19.62
2022-09-11T10:25:23.059Z,19.61
2022-09-11T10:27:54.097Z,19.64
2022-09-11T10:30:24.896Z,19.71
2022-09-11T10:32:53.005Z,19.85
2022-09-11T10:35:22.190Z,19.97
2022-09-11T10:38:00.720Z,20.00
2022-09-11T10:40:28.899Z,20.03
2022-09-11T10:42:57.019Z,20.11
2022-09-11T10:45:25.139Z,20.24
2022-09-11T10:47:52.867Z,20.33
2022-09-11T10:50:29.268Z,20.42
2022-09-11T10:52:57.130Z,20.48
2022-09-11T10:55:27.763Z,20.45
2022-09-11T10:57:59.643Z,20.38
2022-09-11T11:00:31.691Z,20.38
2022-09-11T11:03:04.265Z,20.50
2022-09-11T11:05:50.838Z,20.54
2022-09-11T11:08:24.777Z,20.65
2022-09-11T11:11:14.132Z,20.73
2022-09-11T11:13:47.337Z,20.73
2022-09-11T11:16:20.482Z,20.65
2022-09-11T11:19:01.004Z,20.51
2022-09-11T11:21:41.046Z,20.41
2022-09-11T11:24:27.751Z,20.34
2022-09-11T11:27:07.698Z,20.30
2022-09-11T11:29:38.436Z,20.24
2022-09-11T11:32:24.873Z,20.20
2022-09-11T11:35:01.615Z,20.13
2022-09-11T11:37:33.265Z,20.13
2022-09-11T11:40:06.698Z,20.20
2022-09-11T11:42:37.865Z,20.32
2022-09-11T11:45:10.273Z,20.47
2022-09-11T11:47:42.650Z,20.54
2022-09-11T11:50:31.806Z,20.57
2022-09-11T11:53:08.500Z,20.60
2022-09-11T11:55:39.409Z,20.64
2022-09-11T11:58:13.484Z,20.71
2022-09-11T12:00:44.581Z,20.84
2022-09-11T12:03:12.394Z,20.95
2022-09-11T12:05:40.494Z,20.95
2022-09-11T12:08:15.907Z,20.90
2022-09-11T12:11:03.900Z,20.78
2022-09-11T12:13:34.087Z,20.66
2022-09-11T12:16:15.173Z,20.62
2022-09-11T12:19:01.275Z,20.66
2022-09-11T12:21:31.797Z,20.73
2022-09-11T12:23:59.998Z,20.89
2022-09-11T12:26:27.888Z,20.99
2022-09-11T12:29:20.303Z,21.08
2022-09-11T12:31:51.252Z,21.15
2022-09-11T12:34:37.337Z,21.19
2022-09-11T12:37:11.265Z,21.22
2022-09-11T12:39:46.986Z,21.26
2022-09-11T12:42:23.662Z,21.32
2022-09-11T12:44:51.404Z,21.35
2022-09-11T12:47:24.512Z,21.29
2022-09-11T12:50:12.870Z,21.19
2022-09-11T12:52:40.633Z,21.07
2022-09-11T12:55:30.552Z,20.99
2022-09-11T12:58:02.848Z,20.88
2022-09-11T13:00:44.015Z,20.82
2022-09-11T13:03:20.030Z,20.80
2022-09-11T13:06:03.335Z,20.77
2022-09-11T13:08:34.486Z,20.78
2022-09-11T13:11:21.296Z,20.77
2022-09-11T13:13:49.266Z,20.79
2022-09-11T13:16:23.529Z,20.88
2022-09-11T13:18:53.785Z,20.95
2022-09-11T13:21:25.829Z,20.92
2022-09-11T13:23:54.552Z,20.89
2022-09-11T13:26:27.234Z,20.84
2022-09-11T13:28:56.731Z,20.78
2022-09-11T13:31:33.759Z,20.75
2022-09-11T13:34:04.444Z,20.70
2022-09-11T13:36:34.247Z,20.64
2022-09-11T13:39:03.039Z,20.64
2022-09-11T13:41:33.369Z,20.71
2022-09-11T13:44:01.734Z,20.78
2022-09-11T13:46:34.929Z,20.88
2022-09-11T13:49:06.699Z,20.98
2022-09-11T13:51:44.904Z,21.07
2022-09-11T13:54:13.358Z,21.08
2022-09-11T13:56:47.597Z,21.16
2022-09-11T13:59:36.767Z,21.23
2022-09-11T14:02:19.173Z,21.32
2022-09-11T14:04:49.392Z,21.30
2022-09-11T14:07:24.778Z,21.21
2022-09-11T14:10:00.283Z,21.17
2022-09-11T14:12:29.074Z,21.09
2022-09-11T14:14:58.575Z,21.04
2022-09-11T14:17:26.747Z,20.93
2022-09-11T14:20:00.333Z,20.84
2022-09-11T14:22:31.200Z,20.73
2022-09-11T14:25:02.019Z,20.62
2022-09-11T14:27:32.976Z,20.57
2022-09-11T14:30:00.933Z,20.51
2022-09-11T14:32:32.953Z,20.47
2022-09-11T14:35:01.471Z,20.46
2022-09-11T14:37:31.259Z,20.42
2022-09-11T14:40:00.416Z,20.40
2022-09-11T14:42:30.295Z,20.46
2022-09-11T14:44:58.264Z,20.51
2022-09-11T14:47:27.982Z,20.50
2022-09-11T14:49:57.616Z,20.43
2022-09-11T14:52:26.369Z,20.38
2022-09-11T14:54:54.948Z,20.35
2022-09-11T14:57:25.300Z,20.25
2022-09-11T14:59:53.153Z,20.21
2022-09-11T15:02:22.130Z,20.18
2022-09-11T15:04:50.919Z,20.19
2022-09-11T15:07:19.890Z,20.19
2022-09-11T15:09:48.163Z,20.18
2022-09-11T15:12:16.157Z,20.21
2022-09-11T15:14:56.369Z,20.20
2022-09-11T15:17:30.729Z,20.22
2022-09-11T15:20:00.166Z,20.20
2022-09-11T15:22:28.815Z,20.15
2022-09-11T15:24:56.889Z,20.10
2022-09-11T15:27:25.335Z,20.09
2022-09-11T15:29:53.443Z,20.08
2022-09-11T15:32:21.400Z,20.04
2022-09-11T15:34:49.321Z,19.99
2022-09-11T15:37:17.324Z,19.97
2022-09-11T15:39:45.385Z,19.97
2022-09-11T15:42:13.480Z,19.97
2022-09-11T15:44:41.271Z,19.91
2022-09-11T15:47:09.448Z,19.82
2022-09-11T15:49:39.514Z,19.66
2022-09-11T15:52:07.409Z,19.50
2022-09-11T15:54:35.280Z,19.38
2022-09-11T15:57:03.026Z,19.29
2022-09-11T15:59:30.671Z,19.21
2022-09-11T16:01:59.472Z,19.14
2022-09-11T16:04:32.323Z,19.10
2022-09-11T16:07:00.342Z,19.08
2022-09-11T16:09:30.154Z,19.07
2022-09-11T16:12:00.453Z,19.06
2022-09-11T16:14:31.150Z,19.06
2022-09-11T16:16:59.524Z,19.07
2022-09-11T16:19:28.275Z,19.09
2022-09-11T16:21:57.219Z,19.10
2022-09-11T16:24:26.039Z,19.06
2022-09-11T16:26:55.982Z,19.04
2022-09-11T16:29:25.708Z,19.00
2022-09-11T16:31:54.774Z,19.00
2022-09-11T16:34:22.736Z,18.99
2022-09-11T16:36:50.507Z,18.97
2022-09-11T16:39:21.887Z,18.93
2022-09-11T16:41:49.887Z,18.89
2022-09-11T16:44:17.893Z,18.86
2022-09-11T16:46:46.066Z,18.81
2022-09-11T16:49:16.016Z,18.77
2022-09-11T16:51:48.426Z,18.75
2022-09-11T16:54:16.481Z,18.73
2022-09-11T16:56:46.207Z,18.68
2022-09-11T16:59:14.204Z,18.65
2022-09-11T17:01:41.901Z,18.62
2022-09-11T17:04:09.730Z,18.60
2022-09-11T17:06:37.392Z,18.58
2022-09-11T17:09:05.253Z,18.57
2022-09-11T17:11:33.635Z,18.56
2022-09-11T17:14:02.320Z,18.54
2022-09-11T17:16:32.141Z,18.51
2022-09-11T17:19:01.617Z,18.48
2022-09-11T17:21:30.212Z,18.43
2022-09-11T17:23:58.391Z,18.40
2022-09-11T17:26:26.161Z,18.38
2022-09-11T17:28:55.092Z,18.35
2022-09-11T17:31:24.585Z,18.32
2022-09-11T17:33:52.525Z,18.28
2022-09-11T17:36:21.111Z,18.22
2022-09-11T17:38:52.760Z,18.17
2022-09-11T17:41:21.182Z,18.15
2022-09-11T17:43:49.099Z,18.13
2022-09-11T17:46:20.683Z,18.12
2022-09-11T17:48:48.625Z,18.12
2022-09-11T17:51:19.983Z,18.12
2022-09-11T17:53:48.974Z,18.16
2022-09-11T17:56:18.676Z,18.17
2022-09-11T17:58:50.028Z,18.14
2022-09-11T18:01:18.086Z,18.12
2022-09-11T18:03:50.822Z,18.09
2022-09-11T18:06:22.577Z,18.07
2022-09-11T18:08:50.504Z,18.05
2022-09-11T18:11:18.399Z,18.02
2022-09-11T18:13:46.031Z,17.98
2022-09-11T18:16:13.803Z,17.92
2022-09-11T18:18:42.273Z,17.87
2022-09-11T18:21:11.170Z,17.84
2022-09-11T18:23:40.411Z,17.80
2022-09-11T18:26:10.382Z,17.75
2022-09-11T18:28:39.789Z,17.71
2022-09-11T18:31:07.790Z,17.67
2022-09-11T18:33:35.826Z,17.61
2022-09-11T18:36:11.170Z,17.56
2022-09-11T18:38:39.944Z,17.52
2022-09-11T18:41:07.707Z,17.50
2022-09-11T18:43:35.360Z,17.47
2022-09-11T18:46:03.952Z,17.42
2022-09-11T18:48:31.834Z,17.41
2022-09-11T18:51:06.229Z,17.38
2022-09-11T18:53:35.377Z,17.32
2022-09-11T18:56:04.134Z,17.28
2022-09-11T18:58:33.124Z,17.24
2022-09-11T19:01:05.595Z,17.19
2022-09-11T19:03:33.667Z,17.16
2022-09-11T19:06:06.626Z,17.13
2022-09-11T19:08:38.411Z,17.10
2022-09-11T19:11:10.589Z,17.08
2022-09-11T19:13:38.942Z,17.06
2022-09-11T19:16:07.182Z,17.03
2022-09-11T19:18:35.790Z,16.99
2022-09-11T19:21:05.387Z,16.97
2022-09-11T19:23:34.346Z,16.97
2022-09-11T19:26:05.469Z,16.98
2022-09-11T19:28:36.696Z,16.99
2022-09-11T19:31:05.347Z,17.01
2022-09-11T19:33:34.398Z,17.05
2022-09-11T19:36:10.790Z,17.06
2022-09-11T19:38:42.908Z,17.09
2022-09-11T19:41:13.004Z,17.10
2022-09-11T19:43:42.109Z,17.10
2022-09-11T19:46:14.723Z,17.09
2022-09-11T19:48:43.587Z,17.05
2022-09-11T19:51:13.260Z,17.03
2022-09-11T19:53:41.969Z,17.02
2022-09-11T19:56:10.769Z,16.99
2022-09-11T19:58:38.922Z,16.96
2022-09-11T20:01:09.253Z,16.95
2022-09-11T20:03:38.737Z,16.95
2022-09-11T20:06:07.558Z,16.94
2022-09-11T20:08:36.626Z,16.92
2022-09-11T20:11:06.240Z,16.89
2022-09-11T20:13:34.734Z,16.86
2022-09-11T20:16:03.480Z,16.83
2022-09-11T20:18:31.582Z,16.79
2022-09-11T20:21:03.236Z,16.74
2022-09-11T20:23:31.383Z,16.69
2022-09-11T20:26:08.716Z,16.65
2022-09-11T20:28:36.887Z,16.62
2022-09-11T20:31:11.995Z,16.59
2022-09-11T20:33:40.199Z,16.59
2022-09-11T20:36:08.270Z,16.61
2022-09-11T20:38:36.521Z,16.59
2022-09-11T20:41:06.090Z,16.55
2022-09-11T20:43:34.485Z,16.55
2022-09-11T20:46:02.499Z,16.53
2022-09-11T20:48:30.878Z,16.50
2022-09-11T20:51:12.159Z,16.46
2022-09-11T20:53:45.870Z,16.42
2022-09-11T20:56:14.893Z,16.38
2022-09-11T20:58:42.824Z,16.35
2022-09-11T21:01:12.734Z,16.30
2022-09-11T21:03:44.674Z,16.23
2022-09-11T21:06:12.671Z,16.16
2022-09-11T21:08:42.266Z,16.11
2022-09-11T21:11:10.526Z,16.08
2022-09-11T21:13:39.354Z,16.02
2022-09-11T21:16:08.673Z,15.94
2022-09-11T21:18:37.011Z,15.90
2022-09-11T21:21:05.290Z,15.87
2022-09-11T21:23:33.671Z,15.84
2022-09-11T21:26:01.741Z,15.80
2022-09-11T21:28:31.024Z,15.76
2022-09-11T21:30:59.192Z,15.73
2022-09-11T21:33:27.593Z,15.72
2022-09-11T21:35:55.658Z,15.72
2022-09-11T21:38:25.273Z,15.72
2022-09-11T21:40:53.345Z,15.73
2022-09-11T21:43:21.412Z,15.73
2022-09-11T21:45:49.172Z,15.75
2022-09-11T21:48:17.248Z,15.76
2022-09-11T21:50:44.880Z,15.77
2022-09-11T21:53:12.686Z,15.72
2022-09-11T21:55:41.665Z,15.68
2022-09-11T21:58:13.319Z,15.66
2022-09-11T22:00:43.127Z,15.64
2022-09-11T22:03:12.252Z,15.63
2022-09-11T22:05:43.227Z,15.60
2022-09-11T22:08:12.237Z,15.57
2022-09-11T22:10:43.446Z,15.55
2022-09-11T22:13:11.397Z,15.52
2022-09-11T22:15:40.060Z,15.47
2022-09-11T22:18:07.922Z,15.44
2022-09-11T22:20:38.973Z,15.40
2022-09-11T22:23:07.145Z,15.38
2022-09-11T22:25:36.820Z,15.36
2022-09-11T22:28:05.082Z,15.34
2022-09-11T22:30:33.472Z,15.29
2022-09-11T22:33:01.365Z,15.27
2022-09-11T22:35:29.218Z,15.26
2022-09-11T22:37:56.916Z,15.25
2022-09-11T22:40:24.657Z,15.22
2022-09-11T22:42:53.310Z,15.19
2022-09-11T22:45:21.210Z,15.18
2022-09-11T22:47:48.869Z,15.17
2022-09-11T22:50:16.747Z,15.18
2022-09-11T22:52:44.607Z,15.18
2022-09-11T22:55:12.672Z,15.19
2022-09-11T22:57:40.540Z,15.20
2022-09-11T23:00:09.841Z,15.22
2022-09-11T23:02:38.113Z,15.25
2022-09-11T23:05:25.502Z,15.28
2022-09-11T23:07:54.840Z,15.33
2022-09-11T23:10:23.814Z,15.33
2022-09-11T23:12:52.214Z,15.32
2022-09-11T23:15:21.413Z,15.29
2022-09-11T23:17:49.171Z,15.26
2022-09-11T23:20:18.446Z,15.23
2022-09-11T23:22:46.236Z,15.20
2022-09-11T23:25:13.980Z,15.18
2022-09-11T23:27:44.527Z,15.16
2022-09-11T23:30:12.604Z,15.13
2022-09-11T23:32:42.001Z,15.09
2022-09-11T23:35:10.281Z,15.07
2022-09-11T23:37:41.095Z,15.03
2022-09-11T23:40:11.606Z,14.99
2022-09-11T23:42:39.371Z,14.95
2022-09-11T23:45:07.580Z,14.92
2022-09-11T23:47:35.253Z,14.89
2022-09-11T23:50:03.012Z,14.89
2022-09-11T23:52:30.751Z,14.87
2022-09-11T23:54:59.043Z,14.86
2022-09-11T23:57:26.865Z,14.84
2022-09-11T23:59:54.781Z,14.82
